Time;durP1;ratioP1;P1;durP2;ratioP2;P2;SDS_P1;SDS_P2;PMS_P1;PMS_P2;Temp;Humidity;BMP_temperature;BMP_pressure;BME280_temperature;BME280_humidity;BME280_pressure;Samples;Min_cycle;Max_cycle;Signal;HPM_P1;HPM_P2
2020/12/26 00:02:08;;;;;;;9.93;5.30;;;3.70;87.50;;;;;;5092661;28;20066;-74
2020/12/26 00:04:36;;;;;;;9.43;5.40;;;3.80;87.60;;;;;;5093157;28;20028;-74
2020/12/26 00:07:05;;;;;;;10.10;4.63;;;3.80;87.60;;;;;;5093177;28;20041;-74
2020/12/26 00:09:31;;;;;;;8.32;4.80;;;3.80;87.60;;;;;;5093319;28;20028;-74
2020/12/26 00:11:57;;;;;;;11.15;5.22;;;3.90;87.60;;;;;;5094638;28;20446;-75
2020/12/26 00:14:27;;;;;;;9.63;4.45;;;3.90;87.50;;;;;;5094769;28;20050;-75
2020/12/26 00:16:55;;;;;;;9.90;5.07;;;4.00;87.50;;;;;;5092826;28;20155;-75
2020/12/26 00:19:21;;;;;;;8.85;4.70;;;4.00;87.40;;;;;;5092971;28;20020;-75
2020/12/26 00:21:46;;;;;;;8.02;4.80;;;4.10;87.40;;;;;;5094216;28;20029;-75
2020/12/26 00:24:12;;;;;;;12.63;5.90;;;4.10;87.30;;;;;;5094226;28;20535;-75
2020/12/26 00:26:38;;;;;;;7.60;4.45;;;4.10;87.20;;;;;;5092902;28;20088;-75
2020/12/26 00:29:03;;;;;;;8.70;4.65;;;4.10;87.20;;;;;;5094227;28;20178;-74
2020/12/26 00:31:29;;;;;;;9.18;4.82;;;4.20;87.20;;;;;;5092907;28;20465;-74
2020/12/26 00:33:54;;;;;;;7.80;4.65;;;4.20;87.20;;;;;;5094208;28;20115;-74
2020/12/26 00:36:20;;;;;;;13.13;4.50;;;4.20;87.10;;;;;;5092682;28;20028;-75
2020/12/26 00:38:46;;;;;;;9.95;4.68;;;4.20;87.10;;;;;;5092598;28;20490;-75
2020/12/26 00:41:12;;;;;;;6.78;4.20;;;4.30;87.10;;;;;;5093726;28;20035;-74
2020/12/26 00:43:38;;;;;;;7.05;4.38;;;4.30;87.10;;;;;;5092597;28;20020;-75
2020/12/26 00:46:03;;;;;;;10.15;4.53;;;4.30;87.00;;;;;;5092546;28;20134;-75
2020/12/26 00:48:29;;;;;;;5.97;4.10;;;4.40;87.00;;;;;;5093930;28;20028;-75
2020/12/26 00:50:55;;;;;;;8.93;5.28;;;4.40;87.00;;;;;;5092362;28;20028;-74
2020/12/26 00:53:20;;;;;;;5.22;3.78;;;4.40;87.00;;;;;;5093773;28;20024;-74
2020/12/26 00:55:46;;;;;;;7.63;4.22;;;4.40;86.90;;;;;;5093451;28;20040;-75
2020/12/26 00:58:11;;;;;;;8.70;4.10;;;4.40;86.90;;;;;;5093804;28;20387;-75
2020/12/26 01:00:37;;;;;;;9.77;4.40;;;4.40;86.80;;;;;;5093423;28;20032;-75
2020/12/26 01:03:03;;;;;;;11.02;4.60;;;4.40;86.80;;;;;;5093922;28;20024;-75
2020/12/26 01:05:29;;;;;;;9.20;4.15;;;4.40;86.80;;;;;;5093605;28;20430;-75
2020/12/26 01:07:54;;;;;;;7.53;4.28;;;4.30;86.70;;;;;;5092085;28;20055;-74
2020/12/26 01:10:20;;;;;;;7.47;3.95;;;4.40;86.80;;;;;;5093708;28;20031;-74
2020/12/26 01:12:46;;;;;;;6.38;4.18;;;4.40;86.80;;;;;;5092821;28;20039;-74
2020/12/26 01:15:11;;;;;;;7.70;4.43;;;4.40;86.80;;;;;;5092354;28;20028;-75
2020/12/26 01:17:37;;;;;;;8.70;4.40;;;4.40;86.70;;;;;;5093424;28;20487;-74
2020/12/26 01:20:03;;;;;;;12.23;4.28;;;4.40;86.70;;;;;;5093767;28;20020;-74
2020/12/26 01:22:29;;;;;;;10.82;4.13;;;4.40;86.70;;;;;;5091768;28;20034;-75
2020/12/26 01:24:54;;;;;;;9.30;4.80;;;4.40;86.80;;;;;;5093216;28;20379;-74
2020/12/26 01:27:20;;;;;;;10.75;5.45;;;4.40;86.80;;;;;;5091658;28;20127;-74
2020/12/26 01:29:47;;;;;;;7.25;4.63;;;4.50;86.80;;;;;;5091735;28;20092;-74
2020/12/26 01:32:12;;;;;;;9.65;5.53;;;4.50;86.60;;;;;;5092799;28;20036;-75
2020/12/26 01:34:38;;;;;;;8.35;5.15;;;4.50;86.60;;;;;;5091702;28;20037;-75
2020/12/26 01:37:04;;;;;;;9.25;5.70;;;4.50;86.60;;;;;;5091605;28;20032;-74
2020/12/26 01:39:29;;;;;;;8.23;5.03;;;4.50;86.60;;;;;;5091548;28;20112;-75
2020/12/26 01:41:55;;;;;;;12.10;5.68;;;4.50;86.60;;;;;;5092707;28;20016;-74
2020/12/26 01:44:21;;;;;;;8.40;4.93;;;4.50;86.60;;;;;;5091315;28;20035;-74
2020/12/26 01:46:51;;;;;;;9.63;5.30;;;4.50;86.60;;;;;;5091476;28;20158;-74
2020/12/26 01:49:19;;;;;;;10.50;5.60;;;4.50;86.60;;;;;;5091551;28;20447;-74
2020/12/26 01:51:45;;;;;;;8.32;5.30;;;4.50;86.60;;;;;;5092683;28;20028;-74
2020/12/26 01:54:11;;;;;;;11.55;5.35;;;4.50;86.60;;;;;;5091466;28;20056;-76
2020/12/26 01:56:39;;;;;;;7.82;5.30;;;4.40;86.60;;;;;;5092449;28;20036;-75
2020/12/26 01:59:05;;;;;;;8.90;4.97;;;4.40;86.60;;;;;;5092913;28;20545;-75
2020/12/26 02:01:36;;;;;;;8.38;4.85;;;4.40;86.60;;;;;;5092937;28;20028;-74
2020/12/26 02:04:02;;;;;;;9.10;4.65;;;4.50;86.70;;;;;;5091608;28;20491;-75
2020/12/26 02:06:57;;;;;;;9.63;5.78;;;4.50;86.70;;;;;;5093093;28;20032;-74
2020/12/26 02:09:24;;;;;;;9.25;5.18;;;4.50;86.70;;;;;;5085583;28;20109;-75
2020/12/26 02:11:50;;;;;;;8.07;4.88;;;4.50;86.60;;;;;;5091105;28;20472;-74
2020/12/26 02:14:16;;;;;;;7.97;4.57;;;4.60;86.60;;;;;;5092615;28;20031;-74
2020/12/26 02:16:50;;;;;;;8.32;5.25;;;4.60;86.60;;;;;;5090838;28;20092;-75
2020/12/26 02:19:18;;;;;;;8.77;4.93;;;4.60;86.60;;;;;;5091209;28;20428;-75
2020/12/26 02:21:44;;;;;;;8.35;4.45;;;4.60;86.70;;;;;;5091090;28;20036;-74
2020/12/26 02:24:10;;;;;;;9.35;5.38;;;4.60;86.70;;;;;;5093136;28;20475;-74
2020/12/26 02:26:37;;;;;;;7.30;4.60;;;4.60;86.70;;;;;;5096680;28;20051;-74
2020/12/26 02:29:03;;;;;;;11.45;4.93;;;4.60;86.80;;;;;;5095299;28;20032;-74
2020/12/26 02:31:29;;;;;;;6.60;4.20;;;4.70;86.80;;;;;;5095188;28;20032;-74
2020/12/26 02:33:55;;;;;;;6.22;4.50;;;4.70;86.90;;;;;;5096772;28;20093;-74
2020/12/26 02:36:20;;;;;;;7.57;4.18;;;4.80;86.90;;;;;;5096240;28;20024;-75
2020/12/26 02:38:46;;;;;;;7.55;4.47;;;4.80;86.90;;;;;;5094961;28;20058;-74
2020/12/26 02:41:12;;;;;;;8.23;4.82;;;4.80;86.90;;;;;;5094822;28;20054;-74
2020/12/26 02:43:38;;;;;;;8.82;4.60;;;4.80;86.90;;;;;;5096119;28;20111;-75
2020/12/26 02:46:04;;;;;;;8.00;4.53;;;4.90;87.00;;;;;;5094928;28;20131;-75
2020/12/26 02:48:30;;;;;;;5.72;4.00;;;4.90;87.00;;;;;;5094764;28;20073;-75
2020/12/26 02:50:56;;;;;;;6.72;4.90;;;4.90;87.00;;;;;;5094621;28;20032;-75
2020/12/26 02:53:25;;;;;;;9.30;5.03;;;5.00;87.10;;;;;;5096227;28;20089;-75
2020/12/26 02:55:51;;;;;;;7.65;4.13;;;5.00;87.10;;;;;;5095610;28;20029;-75
2020/12/26 02:58:17;;;;;;;7.22;4.20;;;5.00;87.10;;;;;;5094446;28;20104;-75
2020/12/26 03:00:43;;;;;;;9.98;4.57;;;5.10;87.10;;;;;;5094467;28;20044;-75
2020/12/26 03:03:09;;;;;;;7.75;4.30;;;5.10;87.10;;;;;;5096328;28;20031;-74
2020/12/26 03:05:35;;;;;;;7.57;4.15;;;5.10;87.10;;;;;;5094306;28;20066;-75
2020/12/26 03:08:00;;;;;;;5.70;4.00;;;5.10;87.10;;;;;;5095885;28;20490;-74
2020/12/26 03:10:26;;;;;;;6.72;4.38;;;5.10;87.10;;;;;;5094480;28;20123;-75
2020/12/26 03:12:52;;;;;;;8.55;4.35;;;5.10;87.10;;;;;;5095654;28;20433;-75
2020/12/26 03:15:19;;;;;;;7.10;4.07;;;5.10;87.20;;;;;;5095759;28;20081;-75
2020/12/26 03:17:44;;;;;;;6.20;4.90;;;5.10;87.20;;;;;;5094208;28;20083;-75
2020/12/26 03:20:10;;;;;;;6.72;4.68;;;5.10;87.20;;;;;;5094163;28;20039;-75
2020/12/26 03:22:36;;;;;;;7.97;4.75;;;5.10;87.20;;;;;;5095493;28;20074;-75
2020/12/26 03:25:02;;;;;;;8.13;4.47;;;5.10;87.20;;;;;;5094153;28;20024;-75
2020/12/26 03:27:28;;;;;;;7.18;4.15;;;5.00;87.20;;;;;;5095503;28;20036;-75
2020/12/26 03:29:54;;;;;;;6.80;4.70;;;5.00;87.30;;;;;;5094072;28;20036;-75
2020/12/26 03:32:21;;;;;;;6.32;4.60;;;4.90;87.40;;;;;;5094099;28;20059;-74
2020/12/26 03:34:46;;;;;;;7.30;4.00;;;4.90;87.50;;;;;;5094183;28;20031;-75
2020/12/26 03:37:12;;;;;;;6.47;4.57;;;4.90;87.50;;;;;;5092881;28;20024;-75
2020/12/26 03:39:38;;;;;;;7.50;4.85;;;4.80;87.60;;;;;;5094108;28;20050;-74
2020/12/26 03:42:08;;;;;;;9.25;5.07;;;4.80;87.70;;;;;;5095308;28;20061;-75
2020/12/26 03:44:34;;;;;;;8.00;5.28;;;4.80;87.80;;;;;;5095119;28;20522;-75
2020/12/26 03:47:00;;;;;;;6.03;4.38;;;4.70;87.80;;;;;;5093500;28;20035;-74
2020/12/26 03:49:29;;;;;;;7.85;4.85;;;4.70;87.90;;;;;;5094960;28;20089;-75
2020/12/26 03:51:55;;;;;;;7.32;4.72;;;4.60;88.00;;;;;;5093538;28;20024;-75
2020/12/26 03:54:21;;;;;;;6.10;4.68;;;4.60;88.00;;;;;;5093506;28;20028;-74
2020/12/26 03:56:46;;;;;;;7.90;4.68;;;4.60;88.10;;;;;;5094582;28;20094;-74
2020/12/26 03:59:12;;;;;;;6.80;4.55;;;4.60;88.10;;;;;;5094820;28;20016;-74
2020/12/26 04:01:38;;;;;;;7.15;4.88;;;4.60;88.10;;;;;;5093117;28;20425;-74
2020/12/26 04:04:04;;;;;;;6.15;4.40;;;4.60;88.10;;;;;;5094490;28;20340;-75
2020/12/26 04:06:30;;;;;;;7.20;4.60;;;4.60;88.10;;;;;;5094511;28;20036;-74
2020/12/26 04:08:56;;;;;;;5.68;4.05;;;4.60;88.10;;;;;;5093279;28;20051;-74
2020/12/26 04:11:22;;;;;;;5.88;3.75;;;4.60;88.10;;;;;;5093383;28;20024;-75
2020/12/26 04:13:48;;;;;;;6.25;3.72;;;4.60;88.20;;;;;;5094721;28;20024;-75
2020/12/26 04:16:15;;;;;;;6.25;4.40;;;4.60;88.10;;;;;;5093178;28;20112;-75
2020/12/26 04:18:40;;;;;;;4.78;3.72;;;4.60;88.20;;;;;;5094393;28;20024;-74
2020/12/26 04:21:06;;;;;;;5.35;3.75;;;4.60;88.30;;;;;;5093054;28;20027;-75
2020/12/26 04:23:32;;;;;;;4.72;3.50;;;4.60;88.30;;;;;;5094426;28;20062;-74
2020/12/26 04:25:58;;;;;;;6.10;3.20;;;4.60;88.30;;;;;;5093008;28;20414;-74
2020/12/26 04:28:24;;;;;;;5.30;3.50;;;4.60;88.30;;;;;;5094359;28;20024;-75
2020/12/26 04:30:50;;;;;;;6.05;3.60;;;4.60;88.90;;;;;;5092791;28;20097;-75
2020/12/26 04:33:15;;;;;;;6.95;3.78;;;4.60;88.30;;;;;;5092651;28;20024;-75
2020/12/26 04:35:41;;;;;;;6.57;3.33;;;4.60;88.30;;;;;;5093930;28;20077;-76
2020/12/26 04:38:07;;;;;;;6.47;3.40;;;4.50;88.30;;;;;;5092596;28;20024;-74
2020/12/26 04:40:33;;;;;;;9.15;3.53;;;4.50;88.40;;;;;;5092474;28;20024;-75
2020/12/26 04:42:59;;;;;;;4.85;3.97;;;4.50;88.50;;;;;;5092440;28;20096;-75
2020/12/26 04:45:25;;;;;;;5.18;3.95;;;4.50;88.60;;;;;;5094024;28;20020;-74
2020/12/26 04:47:56;;;;;;;5.88;3.72;;;4.40;88.50;;;;;;5093531;28;20035;-75
2020/12/26 04:50:30;;;;;;;5.65;3.35;;;4.40;88.60;;;;;;5093760;28;20032;-75
2020/12/26 04:53:04;;;;;;;5.50;3.50;;;4.30;88.60;;;;;;5092430;28;20024;-75
2020/12/26 04:55:32;;;;;;;6.15;3.35;;;4.30;88.70;;;;;;5092196;28;20036;-75
2020/12/26 04:58:05;;;;;;;6.15;3.10;;;4.30;88.80;;;;;;5091822;28;20044;-75
2020/12/26 05:00:33;;;;;;;5.93;3.15;;;4.20;88.80;;;;;;5093688;28;20024;-75
2020/12/26 05:03:09;;;;;;;5.68;3.03;;;4.30;88.90;;;;;;5093332;28;20083;-75
2020/12/26 05:05:36;;;;;;;5.22;2.80;;;4.30;88.90;;;;;;5093398;28;20027;-74
2020/12/26 05:08:10;;;;;;;4.75;2.80;;;4.30;88.90;;;;;;5092113;28;20024;-75
2020/12/26 05:10:38;;;;;;;6.90;3.70;;;4.30;88.90;;;;;;5092092;28;20433;-74
2020/12/26 05:13:06;;;;;;;3.58;3.22;;;4.20;88.90;;;;;;5092016;28;20032;-74
2020/12/26 05:15:31;;;;;;;4.97;3.30;;;4.30;89.00;;;;;;5091961;28;20047;-75
2020/12/26 05:17:57;;;;;;;4.82;2.53;;;4.30;89.10;;;;;;5093144;28;20031;-75
2020/12/26 05:20:24;;;;;;;4.95;3.13;;;4.30;89.00;;;;;;5092050;28;20160;-75
2020/12/26 05:23:15;;;;;;;5.50;3.15;;;4.30;89.10;;;;;;5091823;28;20031;-75
2020/12/26 05:25:49;;;;;;;6.20;3.78;;;4.30;89.00;;;;;;5091721;28;20020;-74
2020/12/26 05:28:16;;;;;;;10.18;3.22;;;4.30;88.90;;;;;;5093179;28;20032;-75
2020/12/26 05:30:43;;;;;;;4.43;2.83;;;4.30;88.90;;;;;;5092941;28;20110;-74
2020/12/26 05:33:11;;;;;;;4.10;3.17;;;4.30;88.80;;;;;;5093022;28;20501;-74
2020/12/26 05:35:48;;;;;;;4.70;2.90;;;4.30;88.80;;;;;;5093146;28;20036;-75
2020/12/26 05:38:20;;;;;;;4.93;3.28;;;4.40;88.80;;;;;;5092897;28;20057;-75
2020/12/26 05:40:55;;;;;;;3.17;2.58;;;4.30;88.80;;;;;;5091546;28;20027;-74
2020/12/26 05:43:33;;;;;;;4.93;2.47;;;4.40;88.80;;;;;;5092847;28;20406;-75
2020/12/26 05:45:59;;;;;;;8.80;2.60;;;4.30;88.80;;;;;;5091521;28;20488;-75
2020/12/26 05:48:27;;;;;;;8.00;2.85;;;4.30;88.80;;;;;;5092202;28;20073;-75
2020/12/26 05:51:00;;;;;;;4.88;2.95;;;4.30;88.80;;;;;;5092600;28;20099;-75
2020/12/26 05:53:27;;;;;;;4.72;3.25;;;4.30;88.80;;;;;;5092806;28;20069;-75
2020/12/26 05:55:53;;;;;;;4.78;3.17;;;4.30;88.70;;;;;;5091191;28;20032;-74
2020/12/26 05:58:21;;;;;;;6.10;3.30;;;4.20;88.70;;;;;;5091023;28;20028;-75
2020/12/26 06:00:47;;;;;;;3.80;3.15;;;4.20;88.80;;;;;;5092176;28;20064;-75
2020/12/26 06:03:29;;;;;;;4.70;3.35;;;4.20;88.90;;;;;;5092636;28;20405;-74
2020/12/26 06:05:59;;;;;;;5.70;2.95;;;4.20;89.00;;;;;;5091067;28;20020;-75
2020/12/26 06:08:27;;;;;;;6.30;3.10;;;4.20;89.10;;;;;;5091034;28;20437;-74
2020/12/26 06:10:57;;;;;;;4.55;3.20;;;4.20;89.00;;;;;;5090892;28;20044;-74
2020/12/26 06:13:28;;;;;;;4.82;3.50;;;4.30;88.90;;;;;;5092475;28;20034;-76
2020/12/26 06:15:56;;;;;;;6.80;3.53;;;4.40;88.90;;;;;;5092268;28;20106;-74
2020/12/26 06:18:23;;;;;;;4.95;3.35;;;4.40;88.70;;;;;;5090935;28;20111;-75
2020/12/26 06:20:52;;;;;;;5.57;3.67;;;4.50;88.70;;;;;;5090927;28;20365;-74
2020/12/26 06:23:23;;;;;;;4.28;2.88;;;4.50;88.50;;;;;;5092420;28;20024;-75
2020/12/26 06:25:53;;;;;;;7.53;3.33;;;4.50;88.50;;;;;;5090868;28;20024;-75
2020/12/26 06:28:29;;;;;;;4.63;3.17;;;4.40;88.50;;;;;;5091155;28;20027;-74
2020/12/26 06:30:59;;;;;;;7.78;4.40;;;4.40;88.40;;;;;;5092255;28;20085;-75
2020/12/26 06:33:27;;;;;;;5.38;4.00;;;4.50;88.30;;;;;;5090955;28;20417;-74
2020/12/26 06:35:55;;;;;;;5.35;4.00;;;4.40;88.40;;;;;;5090724;28;20020;-74
2020/12/26 06:38:28;;;;;;;8.73;4.10;;;4.50;88.50;;;;;;5092134;28;20105;-74
2020/12/26 06:41:03;;;;;;;4.95;3.83;;;4.50;88.50;;;;;;5092025;28;20021;-75
2020/12/26 06:43:48;;;;;;;6.93;4.25;;;4.50;88.40;;;;;;5092086;28;20503;-75
2020/12/26 06:46:13;;;;;;;7.70;4.28;;;4.50;88.30;;;;;;5090680;28;20534;-75
2020/12/26 06:48:42;;;;;;;7.68;4.72;;;4.50;88.20;;;;;;5090494;28;20043;-75
2020/12/26 06:51:42;;;;;;;7.88;4.78;;;4.50;88.10;;;;;;5090572;28;20024;-75
2020/12/26 06:54:08;;;;;;;7.57;4.05;;;4.50;88.10;;;;;;5090707;28;20024;-75
2020/12/26 06:56:34;;;;;;;8.40;4.63;;;4.50;88.20;;;;;;5090285;28;20123;-75
2020/12/26 06:59:10;;;;;;;8.63;4.93;;;4.50;88.10;;;;;;5090614;28;20456;-74
2020/12/26 07:01:38;;;;;;;7.93;5.13;;;4.60;88.10;;;;;;5092008;28;20024;-74
2020/12/26 07:04:18;;;;;;;11.55;7.15;;;4.50;88.00;;;;;;5091911;28;20031;-74
2020/12/26 07:06:45;;;;;;;9.15;5.22;;;4.50;88.00;;;;;;5090295;28;20055;-74
2020/12/26 07:09:13;;;;;;;7.78;5.25;;;4.60;88.00;;;;;;5090392;28;20055;-75
2020/12/26 07:11:57;;;;;;;6.38;5.15;;;4.60;88.00;;;;;;5094962;28;20448;-75
2020/12/26 07:14:42;;;;;;;12.25;6.20;;;4.60;88.00;;;;;;5094158;28;20039;-74
2020/12/26 07:17:13;;;;;;;7.60;5.18;;;4.60;87.90;;;;;;5095316;28;20040;-74
2020/12/26 07:19:43;;;;;;;11.95;6.32;;;4.60;88.00;;;;;;5095375;28;20528;-75
2020/12/26 07:22:25;;;;;;;8.00;5.75;;;4.60;87.90;;;;;;5094088;28;20055;-74
2020/12/26 07:24:54;;;;;;;9.77;5.40;;;4.50;87.90;;;;;;5095288;28;20024;-75
2020/12/26 07:27:28;;;;;;;8.48;6.60;;;4.50;87.80;;;;;;5093963;28;20028;-75
2020/12/26 07:30:09;;;;;;;7.72;6.13;;;4.50;87.90;;;;;;5095320;28;20053;-74
2020/12/26 07:32:53;;;;;;;9.40;5.80;;;4.60;88.00;;;;;;5093749;28;20028;-75
2020/12/26 07:35:22;;;;;;;8.80;5.78;;;4.60;88.00;;;;;;5095167;28;20483;-74
2020/12/26 07:38:06;;;;;;;9.20;6.18;;;4.60;87.90;;;;;;5094948;28;20058;-75
2020/12/26 07:40:32;;;;;;;7.15;5.20;;;4.70;87.90;;;;;;5093757;28;20024;-75
2020/12/26 07:43:00;;;;;;;7.15;5.50;;;4.70;87.80;;;;;;5094777;28;20027;-74
2020/12/26 07:45:28;;;;;;;10.00;5.30;;;4.70;87.80;;;;;;5093576;28;20054;-75
2020/12/26 07:47:56;;;;;;;8.80;6.38;;;4.70;87.80;;;;;;5093240;28;20020;-74
2020/12/26 07:50:27;;;;;;;7.43;5.95;;;4.70;87.80;;;;;;5093352;28;20035;-74
2020/12/26 07:52:58;;;;;;;8.55;6.07;;;4.70;87.80;;;;;;5093315;28;20364;-74
2020/12/26 07:55:26;;;;;;;9.48;5.97;;;4.70;87.80;;;;;;5094714;28;20024;-75
2020/12/26 07:58:19;;;;;;;9.57;6.07;;;4.70;87.80;;;;;;5092761;28;20091;-75
2020/12/26 08:00:44;;;;;;;8.18;5.38;;;4.70;87.80;;;;;;5094292;28;20063;-74
2020/12/26 08:03:12;;;;;;;10.82;6.60;;;4.70;87.70;;;;;;5093476;28;20024;-75
2020/12/26 08:05:40;;;;;;;8.55;6.07;;;4.80;87.70;;;;;;5093082;28;20016;-75
2020/12/26 08:08:17;;;;;;;11.25;6.38;;;4.80;87.60;;;;;;5093155;28;20499;-75
2020/12/26 08:10:43;;;;;;;10.52;5.90;;;4.70;87.40;;;;;;5092969;28;20518;-75
2020/12/26 08:13:15;;;;;;;8.82;6.13;;;4.70;87.50;;;;;;5094513;28;20110;-75
2020/12/26 08:15:42;;;;;;;9.73;5.55;;;4.70;87.50;;;;;;5092872;28;20028;-75
2020/12/26 08:18:08;;;;;;;10.75;5.65;;;4.70;87.50;;;;;;5092738;28;20044;-75
2020/12/26 08:20:35;;;;;;;8.77;5.40;;;4.70;87.60;;;;;;5094341;28;20035;-74
2020/12/26 08:23:01;;;;;;;8.98;5.03;;;4.70;87.60;;;;;;5093701;28;20032;-74
2020/12/26 08:25:29;;;;;;;7.97;5.25;;;4.70;87.60;;;;;;5094301;28;20020;-75
2020/12/26 08:27:55;;;;;;;6.20;4.82;;;4.70;87.50;;;;;;5094368;28;20347;-74
2020/12/26 08:30:27;;;;;;;9.15;5.20;;;4.80;87.60;;;;;;5092860;28;20038;-75
2020/12/26 08:33:16;;;;;;;9.15;5.38;;;4.80;87.50;;;;;;5092681;28;20486;-75
2020/12/26 08:35:53;;;;;;;7.80;4.63;;;4.80;88.00;;;;;;5093813;28;20127;-75
2020/12/26 08:38:27;;;;;;;8.85;4.90;;;4.80;87.30;;;;;;5092564;28;20036;-75
2020/12/26 08:40:56;;;;;;;7.53;4.80;;;4.90;87.30;;;;;;5093777;28;20035;-74
2020/12/26 08:43:23;;;;;;;6.63;5.07;;;4.90;87.20;;;;;;5092293;28;20438;-74
2020/12/26 08:45:49;;;;;;;8.07;4.82;;;4.90;87.10;;;;;;5093724;28;20036;-75
2020/12/26 08:48:19;;;;;;;9.68;4.78;;;4.90;87.00;;;;;;5093804;28;20076;-75
2020/12/26 08:50:59;;;;;;;7.82;4.70;;;4.90;87.10;;;;;;5092204;28;20031;-75
2020/12/26 08:53:24;;;;;;;8.10;4.80;;;4.90;87.10;;;;;;5092219;28;20028;-74
2020/12/26 08:55:52;;;;;;;7.05;4.40;;;5.00;87.00;;;;;;5092043;28;20036;-74
2020/12/26 08:58:23;;;;;;;6.18;4.32;;;4.90;87.00;;;;;;5093304;28;20067;-75
2020/12/26 09:00:48;;;;;;;6.03;4.28;;;4.90;87.00;;;;;;5092028;28;20031;-74
2020/12/26 09:03:19;;;;;;;9.23;4.10;;;4.90;87.00;;;;;;5091920;28;20024;-75
2020/12/26 09:05:45;;;;;;;7.47;4.15;;;4.90;87.10;;;;;;5091827;28;20020;-74
2020/12/26 09:08:11;;;;;;;6.47;4.75;;;5.00;87.10;;;;;;5091902;28;20104;-75
2020/12/26 09:10:38;;;;;;;7.20;3.90;;;5.00;87.00;;;;;;5093252;28;20046;-74
2020/12/26 09:13:13;;;;;;;8.38;3.97;;;5.00;86.90;;;;;;5093707;28;20039;-74
2020/12/26 09:16:04;;;;;;;10.32;5.25;;;5.00;86.90;;;;;;5091816;28;20098;-74
2020/12/26 09:18:41;;;;;;;6.10;3.78;;;5.10;86.90;;;;;;5091919;28;20098;-74
2020/12/26 09:21:08;;;;;;;5.75;3.80;;;5.10;86.80;;;;;;5092991;28;20383;-74
2020/12/26 09:23:36;;;;;;;6.82;3.90;;;5.10;86.70;;;;;;5093132;28;20383;-74
2020/12/26 09:26:16;;;;;;;6.88;4.15;;;5.20;86.70;;;;;;5091772;28;20034;-75
2020/12/26 09:28:49;;;;;;;7.80;4.20;;;5.30;86.50;;;;;;5093224;28;20165;-74
2020/12/26 09:31:17;;;;;;;6.32;3.65;;;5.30;86.40;;;;;;5091746;28;20097;-75
2020/12/26 09:33:43;;;;;;;7.20;4.00;;;5.30;86.30;;;;;;5092189;28;20065;-75
2020/12/26 09:36:17;;;;;;;6.90;3.70;;;5.30;86.10;;;;;;5091425;28;20036;-75
2020/12/26 09:38:43;;;;;;;6.53;3.45;;;5.40;86.10;;;;;;5091509;28;20383;-75
2020/12/26 09:41:16;;;;;;;5.85;3.60;;;5.40;86.00;;;;;;5092849;28;20112;-74
2020/12/26 09:43:43;;;;;;;6.75;3.65;;;5.50;85.90;;;;;;5091387;28;20028;-74
2020/12/26 09:46:09;;;;;;;6.82;4.32;;;5.60;85.80;;;;;;5092912;28;20032;-74
2020/12/26 09:48:34;;;;;;;7.18;4.30;;;5.60;85.60;;;;;;5091458;28;20069;-74
2020/12/26 09:51:00;;;;;;;9.13;3.80;;;5.60;85.60;;;;;;5091760;28;20431;-74
2020/12/26 09:53:27;;;;;;;5.13;3.30;;;5.60;85.30;;;;;;5091366;28;20068;-74
2020/12/26 09:55:52;;;;;;;4.40;3.47;;;5.60;85.10;;;;;;5092974;28;20051;-74
2020/12/26 09:58:18;;;;;;;5.40;3.60;;;5.60;85.00;;;;;;5092456;28;20086;-74
2020/12/26 10:00:44;;;;;;;5.47;3.22;;;5.60;85.00;;;;;;5091224;28;20052;-74
2020/12/26 10:03:10;;;;;;;6.38;3.75;;;5.70;85.00;;;;;;5092803;28;20032;-74
2020/12/26 10:05:36;;;;;;;5.88;3.70;;;5.70;84.90;;;;;;5091062;28;20021;-74
2020/12/26 10:08:01;;;;;;;5.78;3.53;;;5.70;84.90;;;;;;5092509;28;20096;-74
2020/12/26 10:10:27;;;;;;;8.00;3.85;;;5.80;85.00;;;;;;5092797;28;20032;-74
2020/12/26 10:12:53;;;;;;;8.70;3.60;;;5.90;84.90;;;;;;5092877;28;20028;-74
2020/12/26 10:15:18;;;;;;;6.28;4.18;;;6.00;84.50;;;;;;5092703;28;20036;-74
2020/12/26 10:17:45;;;;;;;5.03;3.33;;;6.00;84.10;;;;;;5090900;28;20372;-74
2020/12/26 10:20:10;;;;;;;4.35;2.80;;;6.00;84.00;;;;;;5091114;28;20025;-74
2020/12/26 10:22:36;;;;;;;6.22;3.25;;;6.00;84.00;;;;;;5092320;28;20115;-74
2020/12/26 10:25:02;;;;;;;6.93;3.58;;;6.00;84.10;;;;;;5090709;28;20390;-74
2020/12/26 10:27:27;;;;;;;7.00;3.17;;;5.90;83.90;;;;;;5090803;28;20047;-74
2020/12/26 10:29:53;;;;;;;4.68;3.33;;;5.90;83.40;;;;;;5091068;28;20356;-75
2020/12/26 10:32:19;;;;;;;4.78;3.15;;;5.90;83.30;;;;;;5092258;28;20081;-74
2020/12/26 10:34:44;;;;;;;4.72;3.00;;;5.80;83.50;;;;;;5090850;28;20043;-74
2020/12/26 10:37:12;;;;;;;4.57;2.92;;;5.80;83.50;;;;;;5090771;28;20032;-74
2020/12/26 10:39:38;;;;;;;4.95;2.67;;;5.80;83.70;;;;;;5092046;28;20035;-74
2020/12/26 10:42:03;;;;;;;5.05;2.92;;;5.90;83.90;;;;;;5092157;28;20115;-74
2020/12/26 10:44:29;;;;;;;4.93;2.67;;;5.90;83.80;;;;;;5091731;28;20394;-74
2020/12/26 10:46:54;;;;;;;4.10;2.40;;;5.90;83.70;;;;;;5094481;28;20028;-74
2020/12/26 10:49:20;;;;;;;4.03;2.70;;;5.90;83.70;;;;;;5094969;28;20032;-74
2020/12/26 10:51:49;;;;;;;4.70;2.80;;;6.00;83.70;;;;;;5094867;28;20058;-73
2020/12/26 10:54:15;;;;;;;4.50;3.03;;;6.00;83.50;;;;;;5096349;28;20028;-75
2020/12/26 10:56:48;;;;;;;4.65;2.95;;;6.10;83.30;;;;;;5094299;28;21236;-75
2020/12/26 10:59:14;;;;;;;5.45;2.72;;;6.10;83.30;;;;;;5094525;28;20043;-74
2020/12/26 11:01:40;;;;;;;4.07;2.50;;;6.10;83.10;;;;;;5094656;28;20471;-74
2020/12/26 11:04:06;;;;;;;4.80;2.67;;;6.20;83.30;;;;;;5094370;28;20102;-74
2020/12/26 11:06:32;;;;;;;6.10;2.80;;;6.20;83.20;;;;;;5096153;28;20020;-75
2020/12/26 11:08:58;;;;;;;3.55;2.55;;;6.30;83.00;;;;;;5094512;28;20081;-75
2020/12/26 11:12:11;;;;;;;5.93;2.58;;;6.30;82.90;;;;;;5095692;28;20089;-75
2020/12/26 11:14:36;;;;;;;5.88;2.50;;;6.30;83.00;;;;;;5094171;28;20042;-74
2020/12/26 11:17:02;;;;;;;4.85;2.83;;;6.40;83.00;;;;;;5094185;28;20036;-75
2020/12/26 11:19:28;;;;;;;4.22;2.38;;;6.40;82.70;;;;;;5094280;28;20024;-75
2020/12/26 11:21:54;;;;;;;3.53;2.38;;;6.40;82.60;;;;;;5095421;28;20020;-75
2020/12/26 11:24:21;;;;;;;4.30;2.42;;;6.40;82.70;;;;;;5094057;28;20062;-75
2020/12/26 11:29:51;;;;;;;3.40;2.03;;;6.40;82.50;;;;;;5095597;28;20074;-74
2020/12/26 11:32:16;;;;;;;5.53;2.60;;;6.40;82.60;;;;;;5095413;28;20278;-74
2020/12/26 11:34:42;;;;;;;3.63;2.10;;;6.30;82.80;;;;;;5094149;28;20482;-75
2020/12/26 11:37:08;;;;;;;6.47;3.60;;;6.30;82.10;;;;;;5095541;28;20078;-74
2020/12/26 11:39:35;;;;;;;3.92;2.10;;;6.20;82.20;;;;;;5094042;28;20027;-74
2020/12/26 11:42:00;;;;;;;3.90;2.47;;;6.20;82.30;;;;;;5093788;28;20120;-74
2020/12/26 11:44:26;;;;;;;5.32;1.90;;;6.20;82.40;;;;;;5093719;28;20082;-74
2020/12/26 11:46:52;;;;;;;3.25;2.10;;;6.30;82.40;;;;;;5094975;28;20440;-74
2020/12/26 11:49:22;;;;;;;2.75;1.83;;;6.30;82.30;;;;;;5095439;28;20111;-74
2020/12/26 11:51:50;;;;;;;2.50;1.90;;;6.20;82.10;;;;;;5094940;28;20032;-74
2020/12/26 11:54:15;;;;;;;3.92;1.80;;;6.30;82.30;;;;;;5093427;28;20548;-74
2020/12/26 11:56:41;;;;;;;3.03;2.40;;;6.30;82.30;;;;;;5093757;28;20056;-75
2020/12/26 11:59:06;;;;;;;4.78;2.10;;;6.30;82.10;;;;;;5093233;28;20085;-74
2020/12/26 12:01:32;;;;;;;5.85;2.20;;;6.30;82.10;;;;;;5093243;28;20085;-74
2020/12/26 12:03:58;;;;;;;2.90;1.80;;;6.30;82.10;;;;;;5093308;28;20035;-74
2020/12/26 12:06:23;;;;;;;3.10;2.13;;;6.30;82.10;;;;;;5093963;28;20105;-74
2020/12/26 12:08:49;;;;;;;3.58;2.50;;;6.40;82.00;;;;;;5093385;28;20028;-74
2020/12/26 12:11:16;;;;;;;4.38;2.10;;;6.40;82.00;;;;;;5092987;28;20020;-74
2020/12/26 12:13:42;;;;;;;3.60;2.42;;;6.40;81.70;;;;;;5094870;28;20028;-74
2020/12/26 12:16:12;;;;;;;4.65;2.30;;;6.40;81.60;;;;;;5093044;28;20337;-74
2020/12/26 12:18:37;;;;;;;4.80;2.00;;;6.40;81.60;;;;;;5093258;28;20047;-75
2020/12/26 12:21:03;;;;;;;3.70;2.05;;;6.40;81.70;;;;;;5094045;28;20028;-74
2020/12/26 12:23:29;;;;;;;4.93;2.20;;;6.40;81.90;;;;;;5092862;28;20058;-74
2020/12/26 12:25:54;;;;;;;3.17;2.22;;;6.40;81.80;;;;;;5092738;28;20066;-74
2020/12/26 12:28:20;;;;;;;5.60;2.33;;;6.40;81.50;;;;;;5093124;28;20032;-75
2020/12/26 12:30:45;;;;;;;4.28;2.22;;;6.50;81.60;;;;;;5094100;28;20026;-73
2020/12/26 12:33:11;;;;;;;3.58;2.50;;;6.50;81.50;;;;;;5092687;28;20103;-74
2020/12/26 12:35:38;;;;;;;6.35;2.60;;;6.50;81.40;;;;;;5092648;28;20115;-74
2020/12/26 12:38:04;;;;;;;5.68;2.85;;;6.60;81.60;;;;;;5093950;28;20093;-74
2020/12/26 12:40:29;;;;;;;7.93;2.90;;;6.60;81.70;;;;;;5093871;28;20418;-74
2020/12/26 12:42:55;;;;;;;3.20;2.17;;;6.60;81.40;;;;;;5092288;28;20108;-74
2020/12/26 12:45:21;;;;;;;4.90;2.10;;;6.60;81.20;;;;;;5093843;28;20024;-74
2020/12/26 12:47:46;;;;;;;3.25;2.38;;;6.70;81.20;;;;;;5092660;28;20525;-74
2020/12/26 12:50:12;;;;;;;3.45;2.30;;;6.70;81.10;;;;;;5092800;28;20028;-74
2020/12/26 12:52:39;;;;;;;5.20;2.50;;;6.70;80.80;;;;;;5092953;28;20471;-74
2020/12/26 12:55:05;;;;;;;3.25;2.13;;;6.70;80.80;;;;;;5093616;28;20031;-74
2020/12/26 12:57:31;;;;;;;3.13;1.80;;;6.70;80.70;;;;;;5093648;28;20044;-74
2020/12/26 12:59:57;;;;;;;5.57;2.35;;;6.70;80.60;;;;;;5092503;28;20536;-74
2020/12/26 13:02:23;;;;;;;3.17;1.98;;;6.70;80.60;;;;;;5092302;28;20061;-74
2020/12/26 13:04:49;;;;;;;3.45;2.00;;;6.70;80.60;;;;;;5093693;28;20387;-75